createdAt,value
2022-08-21T00:01:53.975Z,44.02
2022-08-21T00:04:22.408Z,44.16
2022-08-21T00:06:51.547Z,43.97
2022-08-21T00:09:20.148Z,44.25
2022-08-21T00:11:48.869Z,43.90
2022-08-21T00:14:17.009Z,44.14
2022-08-21T00:16:43.903Z,44.17
2022-08-21T00:19:11.249Z,44.38
2022-08-21T00:21:38.333Z,44.27
2022-08-21T00:24:05.976Z,44.53
2022-08-21T00:26:35.003Z,44.71
2022-08-21T00:29:05.032Z,45.01
2022-08-21T00:31:32.064Z,45.06
2022-08-21T00:34:01.036Z,44.97
2022-08-21T00:36:29.600Z,45.17
2022-08-21T00:38:57.147Z,45.23
2022-08-21T00:41:37.346Z,45.06
2022-08-21T00:44:09.168Z,45.14
2022-08-21T00:46:36.946Z,45.34
2022-08-21T00:49:05.755Z,45.27
2022-08-21T00:51:41.917Z,44.83
2022-08-21T00:54:13.005Z,45.08
2022-08-21T00:56:46.484Z,45.22
2022-08-21T00:59:14.483Z,45.30
2022-08-21T01:01:41.423Z,45.23
2022-08-21T01:04:08.537Z,45.38
2022-08-21T01:06:36.283Z,45.36
2022-08-21T01:09:04.541Z,45.37
2022-08-21T01:11:32.032Z,45.38
2022-08-21T01:13:59.825Z,45.67
2022-08-21T01:16:27.254Z,45.69
2022-08-21T01:18:54.110Z,45.70
2022-08-21T01:21:27.921Z,45.63
2022-08-21T01:23:57.627Z,45.63
2022-08-21T01:26:34.610Z,45.90
2022-08-21T01:29:20.367Z,46.03
2022-08-21T01:31:47.777Z,46.18
2022-08-21T01:34:16.639Z,46.23
2022-08-21T01:36:45.877Z,46.61
2022-08-21T01:39:13.224Z,46.87
2022-08-21T01:41:40.423Z,46.56
2022-08-21T01:44:07.414Z,46.92
2022-08-21T01:46:37.231Z,47.06
2022-08-21T01:49:06.358Z,47.42
2022-08-21T01:51:33.785Z,47.27
2022-08-21T01:54:00.755Z,47.33
2022-08-21T01:56:29.022Z,47.35
2022-08-21T01:58:56.159Z,47.34
2022-08-21T02:01:23.241Z,47.62
2022-08-21T02:03:51.172Z,47.34
2022-08-21T02:06:19.097Z,47.51
2022-08-21T02:08:47.303Z,47.20
2022-08-21T02:11:14.448Z,47.24
2022-08-21T02:13:41.637Z,47.22
2022-08-21T02:16:09.333Z,47.35
2022-08-21T02:18:36.451Z,47.02
2022-08-21T02:21:04.975Z,46.73
2022-08-21T02:23:32.775Z,46.99
2022-08-21T02:26:02.150Z,46.95
2022-08-21T02:28:29.506Z,46.81
2022-08-21T02:30:57.243Z,47.01
2022-08-21T02:33:25.215Z,46.83
2022-08-21T02:35:53.941Z,47.11
2022-08-21T02:38:28.400Z,46.99
2022-08-21T02:40:56.450Z,47.33
2022-08-21T02:43:25.752Z,46.83
2022-08-21T02:45:54.206Z,46.40
2022-08-21T02:48:24.844Z,46.51
2022-08-21T02:51:04.374Z,46.30
2022-08-21T02:53:32.213Z,46.03
2022-08-21T02:56:01.744Z,45.81
2022-08-21T02:58:32.458Z,45.63
2022-08-21T03:00:59.932Z,45.34
2022-08-21T03:03:27.989Z,45.23
2022-08-21T03:05:56.075Z,44.64
2022-08-21T03:08:24.294Z,44.78
2022-08-21T03:10:54.966Z,44.60
2022-08-21T03:13:22.642Z,44.23
2022-08-21T03:15:50.865Z,44.10
2022-08-21T03:18:18.734Z,43.82
2022-08-21T03:20:48.939Z,43.50
2022-08-21T03:23:18.478Z,42.52
2022-08-21T03:25:47.636Z,40.03
2022-08-21T03:28:22.603Z,38.04
2022-08-21T03:30:51.523Z,35.76
2022-08-21T03:33:20.537Z,35.35
2022-08-21T03:35:56.719Z,34.56
2022-08-21T03:38:26.655Z,34.03
2022-08-21T03:40:54.458Z,33.23
2022-08-21T03:43:22.160Z,33.00
2022-08-21T03:45:49.085Z,33.71
2022-08-21T03:48:16.193Z,34.52
2022-08-21T03:50:44.917Z,36.33
2022-08-21T03:53:17.470Z,36.94
2022-08-21T03:55:47.779Z,37.21
2022-08-21T03:58:17.129Z,38.10
2022-08-21T04:00:49.933Z,37.76
2022-08-21T04:03:17.613Z,37.55
2022-08-21T04:05:46.331Z,37.62
2022-08-21T04:08:15.180Z,37.61
2022-08-21T04:10:44.817Z,37.75
2022-08-21T04:13:12.456Z,37.59
2022-08-21T04:15:39.917Z,37.37
2022-08-21T04:18:07.050Z,37.33
2022-08-21T04:20:34.558Z,37.51
2022-08-21T04:23:03.241Z,37.26
2022-08-21T04:25:30.866Z,37.56
2022-08-21T04:27:58.247Z,37.71
2022-08-21T04:30:28.208Z,37.52
2022-08-21T04:32:58.498Z,37.67
2022-08-21T04:35:27.970Z,37.05
2022-08-21T04:37:55.435Z,37.06
2022-08-21T04:40:25.170Z,36.52
2022-08-21T04:43:11.935Z,36.32
2022-08-21T04:45:42.486Z,35.72
2022-08-21T04:48:14.479Z,35.34
2022-08-21T04:50:57.407Z,35.74
2022-08-21T04:53:39.160Z,35.83
2022-08-21T04:56:10.964Z,35.27
2022-08-21T04:58:39.598Z,35.31
2022-08-21T05:01:12.741Z,35.30
2022-08-21T05:03:42.148Z,35.16
2022-08-21T05:06:11.412Z,35.72
2022-08-21T05:08:40.661Z,34.48
2022-08-21T05:11:07.989Z,34.02
2022-08-21T05:13:34.985Z,33.31
2022-08-21T05:16:02.140Z,33.91
2022-08-21T05:18:29.334Z,33.58
2022-08-21T05:20:56.187Z,33.74
2022-08-21T05:23:23.385Z,33.35
2022-08-21T05:25:50.399Z,33.31
2022-08-21T05:28:17.358Z,33.53
2022-08-21T05:30:47.220Z,33.64
2022-08-21T05:33:14.266Z,33.56
2022-08-21T05:35:41.736Z,34.33
2022-08-21T05:38:16.842Z,34.21
2022-08-21T05:40:47.458Z,33.64
2022-08-21T05:43:15.336Z,34.14
2022-08-21T05:45:44.216Z,34.71
2022-08-21T05:48:16.405Z,35.05
2022-08-21T05:50:44.753Z,34.97
2022-08-21T05:53:12.768Z,34.28
2022-08-21T05:55:45.843Z,33.89
2022-08-21T05:58:18.810Z,33.40
2022-08-21T06:00:48.377Z,33.26
2022-08-21T06:03:18.581Z,33.62
2022-08-21T06:05:46.767Z,32.90
2022-08-21T06:08:15.273Z,32.89
2022-08-21T06:10:42.714Z,32.94
2022-08-21T06:13:10.996Z,32.94
2022-08-21T06:15:38.951Z,32.81
2022-08-21T06:18:06.562Z,32.63
2022-08-21T06:20:33.760Z,31.04
2022-08-21T06:23:01.570Z,31.54
2022-08-21T06:25:29.274Z,31.72
2022-08-21T06:28:03.926Z,31.16
2022-08-21T06:30:31.474Z,30.84
2022-08-21T06:32:58.954Z,30.92
2022-08-21T06:35:26.129Z,30.32
2022-08-21T06:37:53.448Z,30.37
2022-08-21T06:40:20.543Z,30.59
2022-08-21T06:42:53.489Z,30.13
2022-08-21T06:45:22.030Z,30.29
2022-08-21T06:47:49.323Z,30.58
2022-08-21T06:50:16.301Z,30.31
2022-08-21T06:52:43.497Z,29.95
2022-08-21T06:55:11.245Z,29.25
2022-08-21T06:57:38.969Z,28.81
2022-08-21T07:00:08.115Z,28.45
2022-08-21T07:02:35.368Z,27.71
2022-08-21T07:05:17.787Z,27.53
2022-08-21T07:07:47.414Z,27.17
2022-08-21T07:10:21.741Z,26.82
2022-08-21T07:12:59.518Z,26.93
2022-08-21T07:15:32.593Z,26.71
2022-08-21T07:18:00.875Z,26.17
2022-08-21T07:20:29.548Z,26.53
2022-08-21T07:23:00.756Z,26.49
2022-08-21T07:25:28.622Z,25.90
2022-08-21T07:27:56.375Z,24.85
2022-08-21T07:30:23.860Z,24.57
2022-08-21T07:32:51.449Z,24.76
2022-08-21T07:35:20.394Z,24.68
2022-08-21T07:37:47.614Z,24.94
2022-08-21T07:40:16.629Z,24.50
2022-08-21T07:42:47.842Z,24.20
2022-08-21T07:45:15.199Z,24.12
2022-08-21T07:47:43.136Z,24.21
2022-08-21T07:50:14.888Z,24.08
2022-08-21T07:52:43.031Z,24.37
2022-08-21T07:55:12.753Z,23.70
2022-08-21T07:57:39.849Z,23.18
2022-08-21T08:00:10.832Z,23.17
2022-08-21T08:02:41.794Z,23.02
2022-08-21T08:05:12.104Z,22.70
2022-08-21T08:07:39.462Z,22.28
2022-08-21T08:10:08.762Z,22.18
2022-08-21T08:12:38.355Z,22.19
2022-08-21T08:15:05.766Z,22.86
2022-08-21T08:17:33.488Z,22.21
2022-08-21T08:20:01.932Z,21.76
2022-08-21T08:22:30.702Z,21.60
2022-08-21T08:24:58.115Z,21.21
2022-08-21T08:27:25.059Z,21.10
2022-08-21T08:29:52.500Z,21.33
2022-08-21T08:32:20.527Z,21.62
2022-08-21T08:34:50.434Z,21.63
2022-08-21T08:37:17.411Z,21.43
2022-08-21T08:39:45.410Z,21.17
2022-08-21T08:42:33.824Z,21.57
2022-08-21T08:45:07.915Z,21.29
2022-08-21T08:47:39.769Z,21.53
2022-08-21T08:50:22.694Z,20.95
2022-08-21T08:53:01.979Z,21.14
2022-08-21T08:55:40.383Z,20.59
2022-08-21T08:58:08.203Z,20.75
2022-08-21T09:00:35.468Z,20.33
2022-08-21T09:03:04.451Z,20.03
2022-08-21T09:05:47.962Z,19.99
2022-08-21T09:08:41.201Z,19.29
2022-08-21T09:11:28.057Z,18.86
2022-08-21T09:14:02.822Z,19.21
2022-08-21T09:16:40.613Z,18.83
2022-08-21T09:19:44.856Z,18.98
2022-08-21T09:22:36.976Z,19.29
2022-08-21T09:25:08.865Z,18.97
2022-08-21T09:27:37.638Z,18.91
2022-08-21T09:30:07.760Z,19.02
2022-08-21T09:32:37.829Z,19.10
2022-08-21T09:35:21.032Z,19.05
2022-08-21T09:37:52.832Z,19.36
2022-08-21T09:40:32.165Z,19.03
2022-08-21T09:43:09.893Z,18.54
2022-08-21T09:45:37.708Z,18.60
2022-08-21T09:48:14.385Z,18.12
2022-08-21T09:50:43.736Z,17.65
2022-08-21T09:53:23.817Z,17.55
2022-08-21T09:56:25.115Z,17.62
2022-08-21T09:58:52.868Z,17.96
2022-08-21T10:01:26.063Z,18.18
2022-08-21T10:04:09.483Z,17.56
2022-08-21T10:06:37.492Z,18.03
2022-08-21T10:09:21.090Z,18.48
2022-08-21T10:12:13.235Z,18.49
2022-08-21T10:15:11.316Z,18.76
2022-08-21T10:17:52.051Z,18.94
2022-08-21T10:20:29.905Z,18.76
2022-08-21T10:23:32.447Z,18.83
2022-08-21T10:26:14.223Z,18.33
2022-08-21T10:28:53.706Z,18.70
2022-08-21T10:31:38.782Z,18.59
2022-08-21T10:34:24.704Z,18.92
2022-08-21T10:37:17.665Z,18.51
2022-08-21T10:39:44.901Z,18.18
2022-08-21T10:42:33.356Z,18.25
2022-08-21T10:45:03.399Z,18.13
2022-08-21T10:47:38.916Z,18.52
2022-08-21T10:50:25.133Z,18.90
2022-08-21T10:53:15.085Z,18.88
2022-08-21T10:55:49.213Z,18.74
2022-08-21T10:58:25.484Z,19.27
2022-08-21T11:01:01.934Z,18.78
2022-08-21T11:03:28.916Z,18.75
2022-08-21T11:06:03.563Z,18.78
2022-08-21T11:08:43.503Z,18.80
2022-08-21T11:11:23.718Z,18.83
2022-08-21T11:13:59.754Z,18.50
2022-08-21T11:16:37.671Z,18.96
2022-08-21T11:19:23.521Z,18.53
2022-08-21T11:22:01.510Z,19.12
2022-08-21T11:24:34.293Z,18.69
2022-08-21T11:27:04.530Z,18.85
2022-08-21T11:29:37.188Z,18.99
2022-08-21T11:32:54.102Z,19.62
2022-08-21T11:35:27.029Z,19.84
2022-08-21T11:38:00.062Z,20.03
2022-08-21T11:40:53.530Z,20.17
2022-08-21T11:43:20.703Z,20.15
2022-08-21T11:45:57.594Z,20.17
2022-08-21T11:48:39.912Z,20.46
2022-08-21T11:51:23.277Z,20.29
2022-08-21T11:54:07.407Z,20.55
2022-08-21T11:56:43.369Z,20.76
2022-08-21T11:59:22.147Z,20.92
2022-08-21T12:01:52.335Z,21.04
2022-08-21T12:04:32.357Z,20.98
2022-08-21T12:07:16.739Z,21.16
2022-08-21T12:09:56.104Z,21.18
2022-08-21T12:12:30.773Z,21.29
2022-08-21T12:15:07.145Z,21.60
2022-08-21T12:17:39.703Z,21.79
2022-08-21T12:20:16.130Z,21.63
2022-08-21T12:22:53.248Z,21.76
2022-08-21T12:25:23.329Z,21.49
2022-08-21T12:28:08.584Z,21.56
2022-08-21T12:30:40.290Z,21.77
2022-08-21T12:33:33.905Z,22.00
2022-08-21T12:36:22.184Z,21.69
2022-08-21T12:39:07.178Z,21.90
2022-08-21T12:42:07.595Z,22.06
2022-08-21T12:44:41.068Z,21.92
2022-08-21T12:47:18.317Z,21.84
2022-08-21T12:50:01.615Z,21.90
2022-08-21T12:52:41.097Z,22.09
2022-08-21T12:55:17.066Z,22.05
2022-08-21T12:57:44.480Z,22.15
2022-08-21T13:00:15.198Z,22.10
2022-08-21T13:02:49.407Z,22.13
2022-08-21T13:05:28.400Z,21.90
2022-08-21T13:07:58.988Z,21.79
2022-08-21T13:10:30.448Z,21.94
2022-08-21T13:13:01.607Z,22.41
2022-08-21T13:15:47.616Z,22.33
2022-08-21T13:18:29.061Z,22.24
2022-08-21T13:21:13.130Z,22.44
2022-08-21T13:23:40.230Z,22.35
2022-08-21T13:26:20.348Z,22.34
2022-08-21T13:28:48.590Z,22.43
2022-08-21T13:31:28.046Z,22.62
2022-08-21T13:33:56.320Z,22.99
2022-08-21T13:36:52.740Z,22.84
2022-08-21T13:39:21.116Z,22.95
2022-08-21T13:41:51.889Z,23.08
2022-08-21T13:44:21.150Z,22.45
2022-08-21T13:46:49.456Z,22.96
2022-08-21T13:49:22.230Z,23.00
2022-08-21T13:51:49.331Z,23.03
2022-08-21T13:54:28.251Z,22.70
2022-08-21T13:56:56.329Z,22.48
2022-08-21T13:59:31.947Z,22.55
2022-08-21T14:02:10.745Z,22.25
2022-08-21T14:04:53.329Z,22.21
2022-08-21T14:07:42.135Z,22.12
2022-08-21T14:10:24.611Z,21.69
2022-08-21T14:12:56.026Z,21.85
2022-08-21T14:15:29.799Z,21.56
2022-08-21T14:18:18.583Z,21.65
2022-08-21T14:20:46.150Z,21.68
2022-08-21T14:23:14.713Z,21.55
2022-08-21T14:25:44.729Z,21.87
2022-08-21T14:28:29.009Z,21.73
2022-08-21T14:30:57.783Z,21.85
2022-08-21T14:33:29.631Z,21.82
2022-08-21T14:35:56.534Z,22.27
2022-08-21T14:38:26.351Z,22.42
2022-08-21T14:40:58.934Z,22.69
2022-08-21T14:43:28.539Z,23.44
2022-08-21T14:45:56.205Z,23.75
2022-08-21T14:48:23.269Z,24.23
2022-08-21T14:50:50.419Z,24.34
2022-08-21T14:53:20.310Z,24.53
2022-08-21T14:56:05.827Z,24.66
2022-08-21T14:58:41.420Z,24.57
2022-08-21T15:01:11.638Z,24.95
2022-08-21T15:03:39.096Z,25.10
2022-08-21T15:06:07.699Z,25.07
2022-08-21T15:08:35.334Z,25.12
2022-08-21T15:11:18.544Z,25.31
2022-08-21T15:13:58.959Z,25.33
2022-08-21T15:16:28.180Z,25.45
2022-08-21T15:18:56.047Z,25.34
2022-08-21T15:21:23.135Z,25.21
2022-08-21T15:23:50.384Z,25.69
2022-08-21T15:26:17.467Z,25.64
2022-08-21T15:28:44.557Z,25.67
2022-08-21T15:31:11.717Z,25.83
2022-08-21T15:33:38.678Z,25.92
2022-08-21T15:36:05.993Z,25.76
2022-08-21T15:38:33.198Z,25.75
2022-08-21T15:41:00.503Z,25.96
2022-08-21T15:43:34.398Z,25.85
2022-08-21T15:46:02.736Z,26.11
2022-08-21T15:48:30.098Z,26.05
2022-08-21T15:50:57.192Z,26.07
2022-08-21T15:53:24.486Z,25.88
2022-08-21T15:55:51.650Z,26.09
2022-08-21T15:58:21.677Z,26.14
2022-08-21T16:00:48.985Z,26.12
2022-08-21T16:03:23.370Z,26.28
2022-08-21T16:05:53.330Z,26.50
2022-08-21T16:08:21.651Z,26.40
2022-08-21T16:10:49.003Z,26.54
2022-08-21T16:13:23.801Z,26.78
2022-08-21T16:15:51.150Z,26.80
2022-08-21T16:18:20.117Z,27.13
2022-08-21T16:20:47.823Z,26.87
2022-08-21T16:23:15.239Z,27.22
2022-08-21T16:25:43.992Z,27.30
2022-08-21T16:28:15.789Z,27.38
2022-08-21T16:30:47.624Z,27.55
2022-08-21T16:33:25.055Z,27.78
2022-08-21T16:35:52.429Z,27.65
2022-08-21T16:38:19.914Z,27.68
2022-08-21T16:40:47.095Z,27.72
2022-08-21T16:43:15.099Z,27.49
2022-08-21T16:45:44.180Z,28.03
2022-08-21T16:48:11.325Z,27.99
2022-08-21T16:50:39.289Z,28.20
2022-08-21T16:53:07.145Z,28.38
2022-08-21T16:55:57.294Z,28.41
2022-08-21T16:58:30.188Z,28.47
2022-08-21T17:00:59.207Z,28.52
2022-08-21T17:03:35.020Z,28.32
2022-08-21T17:06:02.465Z,28.24
2022-08-21T17:08:29.364Z,28.56
2022-08-21T17:10:57.035Z,28.31
2022-08-21T17:13:25.841Z,28.33
2022-08-21T17:15:53.660Z,28.32
2022-08-21T17:18:23.887Z,27.96
2022-08-21T17:20:50.981Z,27.92
2022-08-21T17:23:19.702Z,28.03
2022-08-21T17:25:51.418Z,28.08
2022-08-21T17:28:25.931Z,28.16
2022-08-21T17:30:56.154Z,28.17
2022-08-21T17:33:25.495Z,28.32
2022-08-21T17:35:53.814Z,28.24
2022-08-21T17:38:21.311Z,28.26
2022-08-21T17:40:48.761Z,28.46
2022-08-21T17:43:15.849Z,28.30
2022-08-21T17:45:44.179Z,28.34
2022-08-21T17:48:12.146Z,28.59
2022-08-21T17:50:40.011Z,28.85
2022-08-21T17:53:07.262Z,28.64
2022-08-21T17:55:34.921Z,28.90
2022-08-21T17:58:03.760Z,28.78
2022-08-21T18:00:32.395Z,28.95
2022-08-21T18:03:04.668Z,29.04
2022-08-21T18:05:31.812Z,29.03
2022-08-21T18:07:59.532Z,29.10
2022-08-21T18:10:27.348Z,29.19
2022-08-21T18:12:54.703Z,29.06
2022-08-21T18:15:22.288Z,29.14
2022-08-21T18:17:51.053Z,29.51
2022-08-21T18:20:21.087Z,29.44
2022-08-21T18:22:48.154Z,29.32
2022-08-21T18:25:15.674Z,29.38
2022-08-21T18:27:46.116Z,29.39
2022-08-21T18:30:22.464Z,29.55
2022-08-21T18:32:52.111Z,29.72
2022-08-21T18:35:19.649Z,29.68
2022-08-21T18:37:46.689Z,29.83
2022-08-21T18:40:14.193Z,29.50
2022-08-21T18:42:47.865Z,29.92
2022-08-21T18:45:23.337Z,29.55
2022-08-21T18:47:53.457Z,29.56
2022-08-21T18:50:26.421Z,29.92
2022-08-21T18:53:18.210Z,30.02
2022-08-21T18:55:43.340Z,30.23
2022-08-21T18:58:11.671Z,29.87
2022-08-21T19:00:45.957Z,30.00
2022-08-21T19:03:23.857Z,29.94
2022-08-21T19:05:53.506Z,29.80
2022-08-21T19:08:23.537Z,29.82
2022-08-21T19:10:54.964Z,29.66
2022-08-21T19:13:23.041Z,29.86
2022-08-21T19:15:53.057Z,29.82
2022-08-21T19:18:27.932Z,29.80
2022-08-21T19:21:11.985Z,29.93
2022-08-21T19:23:40.362Z,30.09
2022-08-21T19:26:10.764Z,30.30
2022-08-21T19:28:44.738Z,30.57
2022-08-21T19:31:23.805Z,30.52
2022-08-21T19:34:09.829Z,30.68
2022-08-21T19:36:39.316Z,30.83
2022-08-21T19:39:11.171Z,30.79
2022-08-21T19:41:42.460Z,30.96
2022-08-21T19:44:14.086Z,30.98
2022-08-21T19:46:44.783Z,31.13
2022-08-21T19:49:16.038Z,31.16
2022-08-21T19:51:44.249Z,31.05
2022-08-21T19:54:22.060Z,31.04
2022-08-21T19:56:50.621Z,31.28
2022-08-21T19:59:19.131Z,31.22
2022-08-21T20:01:56.071Z,31.29
2022-08-21T20:04:23.273Z,31.47
2022-08-21T20:06:52.486Z,31.28
2022-08-21T20:09:20.683Z,31.55
2022-08-21T20:11:52.416Z,31.59
2022-08-21T20:14:22.399Z,31.38
2022-08-21T20:16:52.727Z,31.39
2022-08-21T20:19:21.939Z,31.49
2022-08-21T20:21:49.404Z,31.52
2022-08-21T20:24:16.727Z,31.67
2022-08-21T20:29:39.322Z,31.77
2022-08-21T20:32:12.078Z,31.90
2022-08-21T20:34:40.941Z,31.78
2022-08-21T20:37:09.347Z,32.00
2022-08-21T20:39:55.483Z,32.06
2022-08-21T20:42:24.929Z,32.03
2022-08-21T20:44:53.825Z,32.07
2022-08-21T20:47:21.168Z,32.40
2022-08-21T20:49:55.817Z,32.05
2022-08-21T20:52:27.125Z,32.23
2022-08-21T20:55:03.921Z,32.81
2022-08-21T20:57:57.365Z,32.63
2022-08-21T21:00:27.523Z,32.90
2022-08-21T21:03:26.363Z,33.00
2022-08-21T21:06:26.486Z,33.16
2022-08-21T21:08:59.861Z,33.23
2022-08-21T21:11:39.855Z,33.37
2022-08-21T21:14:24.167Z,33.48
2022-08-21T21:16:59.189Z,33.38
2022-08-21T21:19:37.952Z,33.45
2022-08-21T21:22:11.267Z,33.47
2022-08-21T21:24:59.597Z,33.73
2022-08-21T21:27:40.091Z,33.73
2022-08-21T21:30:20.992Z,33.67
2022-08-21T21:32:48.540Z,33.92
2022-08-21T21:35:17.480Z,33.91
2022-08-21T21:38:16.856Z,34.08
2022-08-21T21:40:59.705Z,34.04
2022-08-21T21:43:32.337Z,33.88
2022-08-21T21:46:02.641Z,34.02
2022-08-21T21:48:32.211Z,33.86
2022-08-21T21:51:26.892Z,34.10
2022-08-21T21:54:04.066Z,34.21
2022-08-21T21:56:53.681Z,34.11
2022-08-21T21:59:37.018Z,34.24
2022-08-21T22:02:11.985Z,34.54
2022-08-21T22:04:56.861Z,34.58
2022-08-21T22:07:36.566Z,34.71
2022-08-21T22:10:57.565Z,34.84
2022-08-21T22:13:33.445Z,35.17
2022-08-21T22:16:07.636Z,35.32
2022-08-21T22:18:47.482Z,35.32
2022-08-21T22:21:32.959Z,35.43
2022-08-21T22:24:12.794Z,35.58
2022-08-21T22:26:44.092Z,35.77
2022-08-21T22:29:16.825Z,36.08
2022-08-21T22:31:59.791Z,36.15
2022-08-21T22:34:28.894Z,36.19
2022-08-21T22:37:00.013Z,36.31
2022-08-21T22:42:25.834Z,36.44
2022-08-21T22:44:59.574Z,36.39
2022-08-21T22:47:41.674Z,36.61
2022-08-21T22:50:27.944Z,36.40
2022-08-21T22:53:02.283Z,36.70
2022-08-21T22:55:55.514Z,36.76
2022-08-21T22:58:27.794Z,36.76
2022-08-21T23:01:00.524Z,37.06
2022-08-21T23:03:43.560Z,37.11
2022-08-21T23:06:34.637Z,36.96
2022-08-21T23:09:09.698Z,37.04
2022-08-21T23:11:43.477Z,36.82
2022-08-21T23:14:14.291Z,36.85
2022-08-21T23:16:58.100Z,37.07
2022-08-21T23:19:40.349Z,36.97
2022-08-21T23:22:41.447Z,36.94
2022-08-21T23:25:36.010Z,36.92
2022-08-21T23:28:16.698Z,36.80
2022-08-21T23:30:58.300Z,37.27
2022-08-21T23:33:52.845Z,37.30
2022-08-21T23:36:55.617Z,36.83
2022-08-21T23:39:37.541Z,37.14
2022-08-21T23:42:45.716Z,37.31
2022-08-21T23:45:34.880Z,37.28
2022-08-21T23:48:21.506Z,37.42
2022-08-21T23:51:10.865Z,37.43
2022-08-21T23:54:05.288Z,37.47
2022-08-21T23:56:32.890Z,37.49
2022-08-21T23:59:12.073Z,37.37
